Time;durP1;ratioP1;P1;durP2;ratioP2;P2;SDS_P1;SDS_P2;PMS_P1;PMS_P2;Temp;Humidity;BMP_temperature;BMP_pressure;BME280_temperature;BME280_humidity;BME280_pressure;Samples;Min_cycle;Max_cycle;Signal;HPM_P1;HPM_P2
2022/08/09 00:07:02;;;;;;;0.20;0.20;;;;;;;;;;21245196;27;20287;-74
2022/08/09 00:17:03;;;;;;;0.40;0.30;;;;;;;;;;21243630;27;20198;-73
2022/08/09 00:27:05;;;;;;;1.20;0.50;;;;;;;;;;21242549;27;20277;-73
2022/08/09 00:37:08;;;;;;;0.40;0.20;;;;;;;;;;21210457;22;20265;-68
2022/08/09 00:47:10;;;;;;;1.10;0.40;;;;;;;;;;21116639;28;20221;-68
2022/08/09 00:57:12;;;;;;;1.77;0.30;;;24.30;73.00;;;;;;21140578;28;20262;-68
2022/08/09 01:07:25;;;;;;;0.63;0.40;;;24.00;77.00;;;;;;21123184;28;20225;-68
2022/08/09 01:17:34;;;;;;;0.68;0.47;;;24.00;74.40;;;;;;21122357;28;20205;-68
2022/08/09 01:27:38;;;;;;;0.80;0.32;;;24.00;81.50;;;;;;21121844;28;20275;-68
2022/08/09 01:37:42;;;;;;;1.15;0.30;;;23.70;75.30;;;;;;21121894;28;20274;-68
2022/08/09 01:47:46;;;;;;;0.95;0.40;;;23.70;75.10;;;;;;21121361;28;20255;-68
2022/08/09 01:57:50;;;;;;;1.90;0.40;;;23.70;82.20;;;;;;21121210;28;20712;-68
2022/08/09 02:08:06;;;;;;;1.75;0.50;;;23.60;82.30;;;;;;21130308;28;20221;-68
2022/08/09 02:18:09;;;;;;;1.27;0.40;;;23.70;75.60;;;;;;21137404;28;20227;-68
2022/08/09 02:28:16;;;;;;;2.25;0.43;;;;;;;;;;21136081;28;20289;-68
2022/08/09 02:38:20;;;;;;;0.52;0.40;;;;;;;;;;21135249;28;20239;-68
2022/08/09 02:48:23;;;;;;;1.13;0.50;;;;;;;;;;21133759;28;20220;-67
2022/08/09 02:58:28;;;;;;;0.95;0.50;;;23.30;84.10;;;;;;21130379;28;20737;-68
2022/08/09 03:08:30;;;;;;;1.30;0.40;;;23.30;83.10;;;;;;21121224;28;20696;-68
2022/08/09 03:18:34;;;;;;;1.50;0.50;;;23.20;84.50;;;;;;21147372;28;20234;-68
2022/08/09 03:28:37;;;;;;;1.25;0.50;;;23.20;84.70;;;;;;21146667;28;20233;-67
2022/08/09 03:38:41;;;;;;;0.95;0.60;;;;;;;;;;21129421;28;20222;-68
2022/08/09 03:48:44;;;;;;;2.70;0.70;;;23.10;85.10;;;;;;21128399;28;20235;-67
2022/08/09 03:58:46;;;;;;;1.30;0.50;;;;;;;;;;21129056;28;20197;-69
2022/08/09 04:08:48;;;;;;;1.60;0.70;;;;;;;;;;21127163;28;20247;-71
2022/08/09 04:18:49;;;;;;;1.80;0.65;;;;;;;;;;21126658;28;20201;-71
2022/08/09 04:28:51;;;;;;;3.70;0.50;;;;;;;;;;21125239;28;20241;-71
2022/08/09 04:38:54;;;;;;;0.63;0.50;;;;;;;;;;21126348;28;20225;-71
2022/08/09 04:48:56;;;;;;;0.90;0.40;;;;;;;;;;21125415;28;20346;-70
2022/08/09 04:58:58;;;;;;;1.83;0.55;;;;;;;;;;21124132;28;20251;-71
2022/08/09 05:09:00;;;;;;;1.38;0.50;;;;;;;;;;21133572;28;20293;-72
2022/08/09 05:19:02;;;;;;;0.80;0.40;;;;;;;;;;21097005;28;20212;-71
2022/08/09 05:29:04;;;;;;;2.30;0.57;;;;;;;;;;21121901;28;20220;-71
2022/08/09 05:39:06;;;;;;;0.50;0.40;;;;;;;;;;21155453;28;20215;-71
2022/08/09 05:49:07;;;;;;;4.53;0.90;;;22.80;82.90;;;;;;21111306;28;20227;-71
2022/08/09 05:59:09;;;;;;;3.20;1.00;;;;;;;;;;21106095;28;20257;-70
2022/08/09 06:09:11;;;;;;;1.48;0.70;;;;;;;;;;21097755;28;20224;-70
2022/08/09 06:19:13;;;;;;;2.40;0.57;;;;;;;;;;21101760;28;20267;-70
2022/08/09 06:29:15;;;;;;;1.23;0.60;;;;;;;;;;21089442;28;20282;-71
2022/08/09 06:39:17;;;;;;;1.65;0.60;;;;;;;;;;21119340;28;20284;-67
2022/08/09 06:49:19;;;;;;;2.15;0.60;;;;;;;;;;21117824;28;20236;-67
2022/08/09 06:59:21;;;;;;;1.60;0.70;;;;;;;;;;21143757;22;20273;-73
2022/08/09 07:09:23;;;;;;;2.38;0.60;;;;;;;;;;21181959;27;20216;-73
2022/08/09 07:19:25;;;;;;;1.75;0.70;;;;;;;;;;21163971;28;20227;-73
2022/08/09 07:29:27;;;;;;;1.33;0.63;;;23.90;86.00;;;;;;21160508;28;20285;-74
2022/08/09 07:39:29;;;;;;;3.70;0.80;;;;;;;;;;21137275;28;20208;-74
2022/08/09 07:49:31;;;;;;;2.22;0.70;;;;;;;;;;21158054;28;20691;-73
2022/08/09 07:59:32;;;;;;;4.68;0.80;;;;;;;;;;21141599;28;20221;-73
2022/08/09 08:09:34;;;;;;;1.85;0.60;;;;;;;;;;21128055;28;20209;-73
2022/08/09 08:19:36;;;;;;;1.35;0.60;;;;;;;;;;21111179;28;20256;-73
2022/08/09 08:29:38;;;;;;;1.40;0.60;;;;;;;;;;21114889;28;20604;-73
2022/08/09 08:39:39;;;;;;;1.10;0.50;;;;;;;;;;21052156;28;20263;-73
2022/08/09 08:49:41;;;;;;;2.45;0.80;;;25.90;72.60;;;;;;21107461;28;20559;-73
2022/08/09 08:59:44;;;;;;;2.38;0.45;;;;;;;;;;21114507;28;20607;-73
2022/08/09 09:09:47;;;;;;;3.67;0.77;;;26.10;76.70;;;;;;21150913;28;20790;-73
2022/08/09 09:19:51;;;;;;;0.98;0.60;;;;;;;;;;21150127;28;20780;-73
2022/08/09 09:29:53;;;;;;;1.80;0.70;;;26.80;77.30;;;;;;21074082;28;20643;-73
2022/08/09 09:39:55;;;;;;;2.35;0.80;;;;;;;;;;21065562;28;20210;-72
2022/08/09 09:49:58;;;;;;;2.67;0.75;;;27.30;78.40;;;;;;21047447;28;20279;-73
2022/08/09 10:00:00;;;;;;;1.85;0.47;;;;;;;;;;21073902;28;20271;-73
2022/08/09 10:10:01;;;;;;;1.80;0.65;;;;;;;;;;21092006;28;20273;-73
2022/08/09 10:20:20;;;;;;;1.10;0.50;;;28.10;73.90;;;;;;21147345;28;20272;-73
2022/08/09 10:30:21;;;;;;;1.40;0.57;;;;;;;;;;21130634;28;20274;-73
2022/08/09 10:40:23;;;;;;;0.82;0.50;;;;;;;;;;21164605;28;20252;-73
2022/08/09 10:51:08;;;;;;;0.90;0.55;;;28.80;63.90;;;;;;21158678;28;20690;-72
2022/08/09 11:01:29;;;;;;;1.00;0.50;;;;;;;;;;21122682;28;20219;-71
2022/08/09 11:11:49;;;;;;;1.25;0.57;;;;;;;;;;21163027;28;20267;-70
2022/08/09 11:21:59;;;;;;;3.78;0.60;;;29.50;62.70;;;;;;21142380;28;20215;-75
2022/08/09 11:32:00;;;;;;;0.68;0.50;;;;;;;;;;21144157;28;20215;-69
2022/08/09 11:42:07;;;;;;;1.60;0.52;;;29.90;60.20;;;;;;21160026;28;20635;-71
2022/08/09 11:52:09;;;;;;;3.00;0.55;;;;;;;;;;21160265;28;20216;-71
2022/08/09 12:02:12;;;;;;;1.63;0.47;;;;;;;;;;21159396;28;20223;-72
2022/08/09 12:12:15;;;;;;;1.17;0.85;;;;;;;;;;21158724;28;20296;-74
2022/08/09 12:22:19;;;;;;;2.63;0.40;;;;;;;;;;21113999;28;20268;-74
2022/08/09 12:32:24;;;;;;;0.90;0.50;;;;;;;;;;21066541;28;20216;-74
2022/08/09 12:42:26;;;;;;;1.42;0.60;;;;;;;;;;21053144;28;20269;-74
2022/08/09 12:52:40;;;;;;;2.90;0.50;;;31.10;58.50;;;;;;21117750;28;20277;-74
2022/08/09 13:02:54;;;;;;;0.90;0.50;;;31.40;62.30;;;;;;21135145;22;20297;-72
2022/08/09 13:12:59;;;;;;;0.73;0.43;;;;;;;;;;21070245;28;20628;-72
2022/08/09 13:23:00;;;;;;;0.40;0.30;;;;;;;;;;21069453;28;20675;-72
2022/08/09 13:33:02;;;;;;;0.45;0.40;;;;;;;;;;21050888;28;20212;-72
2022/08/09 13:43:04;;;;;;;0.85;0.32;;;;;;;;;;21051701;28;20662;-71
2022/08/09 13:53:06;;;;;;;1.90;0.40;;;;;;;;;;21068856;28;20764;-72
2022/08/09 14:03:07;;;;;;;0.65;0.40;;;;;;;;;;21077249;28;20375;-72
2022/08/09 14:13:09;;;;;;;1.48;0.50;;;;;;;;;;21085036;28;20231;-72
2022/08/09 14:23:10;;;;;;;1.10;0.52;;;;;;;;;;21084113;28;20235;-72
2022/08/09 14:33:12;;;;;;;0.38;0.28;;;;;;;;;;21084017;28;20764;-73
2022/08/09 14:43:14;;;;;;;1.95;0.38;;;;;;;;;;21082622;28;20254;-72
2022/08/09 14:53:16;;;;;;;0.98;0.30;;;;;;;;;;21081483;28;20270;-72
2022/08/09 15:03:18;;;;;;;0.90;0.35;;;32.40;61.70;;;;;;21080266;28;20263;-72
2022/08/09 15:13:20;;;;;;;0.93;0.50;;;;;;;;;;21079670;28;20282;-72
2022/08/09 15:23:22;;;;;;;0.50;0.40;;;;;;;;;;21061562;28;20209;-72
2022/08/09 15:33:24;;;;;;;0.80;0.45;;;;;;;;;;21078354;28;20727;-72
2022/08/09 15:43:26;;;;;;;0.73;0.40;;;;;;;;;;21076299;28;20213;-72
2022/08/09 15:53:29;;;;;;;1.10;0.40;;;;;;;;;;21086687;28;20270;-72
2022/08/09 16:03:30;;;;;;;1.60;0.55;;;;;;;;;;21154743;28;20299;-72
2022/08/09 16:13:32;;;;;;;0.77;0.43;;;;;;;;;;21158482;28;20703;-73
2022/08/09 16:23:34;;;;;;;0.52;0.30;;;;;;;;;;21156686;28;20204;-73
2022/08/09 16:33:36;;;;;;;0.47;0.30;;;;;;;;;;21139070;28;20212;-72
2022/08/09 16:43:37;;;;;;;1.70;0.40;;;;;;;;;;21005875;28;20213;-73
2022/08/09 16:53:39;;;;;;;0.93;0.40;;;;;;;;;;20981536;28;20217;-72
2022/08/09 17:03:41;;;;;;;0.73;0.40;;;;;;;;;;20992749;28;20224;-72
2022/08/09 17:13:43;;;;;;;1.98;0.40;;;;;;;;;;21021703;28;20271;-72
2022/08/09 17:23:44;;;;;;;0.57;0.38;;;;;;;;;;21056610;28;20216;-72
2022/08/09 17:33:47;;;;;;;0.50;0.40;;;;;;;;;;21061304;28;20217;-72
2022/08/09 17:43:49;;;;;;;0.98;0.50;;;;;;;;;;21058924;28;20711;-72
2022/08/09 17:53:52;;;;;;;3.03;0.70;;;30.20;64.50;;;;;;21060441;28;20710;-73
2022/08/09 18:03:54;;;;;;;1.55;0.55;;;;;;;;;;21072959;28;20690;-73
2022/08/09 18:13:56;;;;;;;0.65;0.40;;;;;;;;;;21142467;28;20271;-72
2022/08/09 18:23:58;;;;;;;4.22;0.47;;;;;;;;;;21123524;28;20208;-72
2022/08/09 18:33:59;;;;;;;1.42;0.47;;;;;;;;;;21121928;28;20722;-72
2022/08/09 18:44:03;;;;;;;0.60;0.30;;;;;;;;;;21038604;28;20262;-73
2022/08/09 18:54:04;;;;;;;1.13;0.40;;;;;;;;;;21071133;28;20246;-73
2022/08/09 19:04:07;;;;;;;2.17;0.40;;;;;;;;;;21109541;22;20211;-70
2022/08/09 19:14:10;;;;;;;0.93;0.38;;;;;;;;;;20904851;28;20848;-70
2022/08/09 19:24:12;;;;;;;0.82;0.50;;;;;;;;;;20872938;28;20266;-71
2022/08/09 19:34:14;;;;;;;1.30;0.50;;;;;;;;;;20966083;28;20779;-71
2022/08/09 19:44:16;;;;;;;0.77;0.50;;;;;;;;;;20955292;28;20211;-70
2022/08/09 19:54:18;;;;;;;0.80;0.50;;;;;;;;;;20937917;28;20749;-71
2022/08/09 20:04:21;;;;;;;1.73;0.55;;;;;;;;;;20969503;28;20293;-70
2022/08/09 20:14:22;;;;;;;3.40;0.60;;;;;;;;;;20935484;28;20213;-71
2022/08/09 20:24:25;;;;;;;4.40;0.80;;;;;;;;;;20970644;28;20269;-71
2022/08/09 20:34:27;;;;;;;2.90;0.73;;;;;;;;;;20937866;28;20940;-70
2022/08/09 20:44:28;;;;;;;2.22;0.73;;;;;;;;;;20937058;28;20212;-71
2022/08/09 20:54:30;;;;;;;3.45;1.05;;;;;;;;;;20935948;28;20227;-70
2022/08/09 21:04:32;;;;;;;3.22;0.85;;;;;;;;;;20950685;28;20270;-71
2022/08/09 21:14:34;;;;;;;1.48;0.80;;;;;;;;;;20906095;28;20219;-70
2022/08/09 21:25:49;;;;;;;2.50;0.90;;;;;;;;;;20953119;28;20580;-71
2022/08/09 21:34:58;;;;;;;2.38;0.90;;;;;;;;;;20937439;28;20628;-71
2022/08/09 21:45:00;;;;;;;3.63;0.88;;;;;;;;;;20925422;28;20213;-70
2022/08/09 21:55:02;;;;;;;2.33;1.00;;;;;;;;;;20810840;28;20229;-71
2022/08/09 22:05:04;;;;;;;0.93;0.50;;;;;;;;;;20786357;28;20225;-71
2022/08/09 22:15:06;;;;;;;1.30;0.60;;;;;;;;;;20785409;28;20204;-71
2022/08/09 22:25:08;;;;;;;1.15;0.60;;;26.80;70.80;;;;;;20794856;28;20216;-71
2022/08/09 22:35:10;;;;;;;2.55;0.90;;;;;;;;;;20801864;28;20206;-71
2022/08/09 22:45:13;;;;;;;1.70;0.70;;;;;;;;;;20833354;28;20205;-71
2022/08/09 22:55:15;;;;;;;1.33;0.50;;;;;;;;;;20816568;28;20582;-71
2022/08/09 23:05:17;;;;;;;1.30;0.77;;;;;;;;;;20799717;28;20220;-71
2022/08/09 23:15:19;;;;;;;0.70;0.50;;;26.00;72.00;;;;;;20792004;28;20589;-71
2022/08/09 23:25:21;;;;;;;2.05;0.50;;;;;;;;;;20861083;28;20758;-71
2022/08/09 23:35:23;;;;;;;0.43;0.40;;;;;;;;;;20862974;28;20506;-71
2022/08/09 23:45:24;;;;;;;0.80;0.50;;;;;;;;;;20862562;28;20684;-71
2022/08/09 23:55:26;;;;;;;1.20;0.60;;;;;;;;;;20894661;28;20213;-70
